Time;durP1;ratioP1;P1;durP2;ratioP2;P2;SDS_P1;SDS_P2;PMS_P1;PMS_P2;Temp;Humidity;BMP_temperature;BMP_pressure;BME280_temperature;BME280_humidity;BME280_pressure;Samples;Min_cycle;Max_cycle;Signal;HPM_P1;HPM_P2
2022/03/12 00:01:58;;;;;;;3.70;2.57;;;;;;;5.84;33.33;101782.00;4949622;28;96946;-84
2022/03/12 00:04:24;;;;;;;4.43;3.27;;;;;;;5.83;33.11;101789.41;4948998;28;97260;-85
2022/03/12 00:06:49;;;;;;;3.73;2.87;;;;;;;5.76;33.24;101791.56;4954289;28;97058;-84
2022/03/12 00:09:14;;;;;;;4.80;3.53;;;;;;;5.74;33.55;101792.00;4953535;28;97137;-83
2022/03/12 00:11:56;;;;;;;3.00;2.50;;;;;;;5.71;33.67;101792.88;4958527;28;96919;-85
2022/03/12 00:14:22;;;;;;;4.70;2.93;;;;;;;5.69;33.27;101797.22;4954254;28;97791;-84
2022/03/12 00:16:49;;;;;;;4.37;2.67;;;;;;;5.70;33.46;101790.56;4951868;28;98772;-83
2022/03/12 00:19:14;;;;;;;5.77;2.97;;;;;;;5.73;33.35;101803.34;4958762;28;97676;-84
2022/03/12 00:21:42;;;;;;;3.53;3.23;;;;;;;5.71;33.39;101811.97;4959015;28;96743;-83
2022/03/12 00:24:08;;;;;;;4.47;3.30;;;;;;;5.68;33.64;101790.97;4957472;28;97825;-84
2022/03/12 00:26:39;;;;;;;3.70;2.87;;;;;;;5.66;33.56;101807.03;4966678;28;96734;-85
2022/03/12 00:29:05;;;;;;;5.00;2.97;;;;;;;5.66;33.55;101792.59;4966618;28;96641;-84
2022/03/12 00:31:33;;;;;;;3.87;2.50;;;;;;;5.66;33.82;101796.09;4967915;28;96909;-84
2022/03/12 00:33:58;;;;;;;4.53;3.13;;;;;;;5.64;33.41;101790.31;4971624;28;96796;-84
2022/03/12 00:36:24;;;;;;;4.10;3.03;;;;;;;5.59;33.73;101804.47;4964522;28;96978;-82
2022/03/12 00:38:50;;;;;;;5.50;3.20;;;;;;;5.57;33.71;101795.94;4950794;28;97230;-83
2022/03/12 00:41:16;;;;;;;7.70;2.57;;;;;;;5.54;33.74;101788.63;4960135;28;96950;-83
2022/03/12 00:43:41;;;;;;;3.10;2.70;;;;;;;5.52;33.60;101785.56;4946040;28;96871;-83
2022/03/12 00:46:07;;;;;;;4.10;3.00;;;;;;;5.45;33.79;101812.28;4956835;28;98801;-83
2022/03/12 00:48:34;;;;;;;5.20;2.53;;;;;;;5.46;33.69;101786.53;4955193;28;97975;-84
2022/03/12 00:50:59;;;;;;;4.10;3.20;;;;;;;5.37;33.54;101784.41;4961501;28;97410;-83
2022/03/12 00:53:25;;;;;;;2.70;2.50;;;;;;;5.29;33.61;101796.69;4950794;28;97194;-82
2022/03/12 00:55:50;;;;;;;7.57;3.40;;;;;;;5.26;33.71;101786.63;4946715;28;96845;-83
2022/03/12 00:58:15;;;;;;;5.73;2.77;;;;;;;5.24;33.80;101772.66;4960150;28;97523;-83
2022/03/12 01:00:41;;;;;;;5.20;3.00;;;;;;;5.22;33.95;101773.06;4952562;28;97028;-83
2022/03/12 01:03:07;;;;;;;2.80;2.53;;;;;;;5.17;34.11;101781.78;4952264;28;97072;-83
2022/03/12 01:05:50;;;;;;;3.40;2.70;;;;;;;5.17;33.77;101772.81;4950753;28;97238;-83
2022/03/12 01:08:17;;;;;;;3.30;2.60;;;;;;;5.16;33.89;101776.75;4953705;28;102018;-83
2022/03/12 01:10:44;;;;;;;3.00;2.27;;;;;;;5.14;33.97;101787.31;4961228;28;96894;-83
2022/03/12 01:13:10;;;;;;;4.53;2.37;;;;;;;5.07;34.35;101782.03;4944845;28;97239;-83
2022/03/12 01:15:36;;;;;;;2.63;2.40;;;;;;;5.05;34.35;101784.41;4955695;28;98372;-83
2022/03/12 01:18:02;;;;;;;3.90;2.80;;;;;;;5.05;33.89;101776.22;4947287;28;97373;-84
2022/03/12 01:20:28;;;;;;;9.27;3.00;;;;;;;4.99;33.75;101786.13;4951449;28;96964;-83
2022/03/12 01:22:53;;;;;;;4.67;3.33;;;;;;;5.02;34.22;101769.66;4958657;28;97136;-83
2022/03/12 01:25:19;;;;;;;6.10;2.90;;;;;;;4.99;nan;101769.75;4948736;28;97573;-84
2022/03/12 01:27:44;;;;;;;2.90;2.47;;;;;;;4.95;34.25;101771.81;4959435;28;97358;-83
2022/03/12 01:30:10;;;;;;;3.00;2.43;;;;;;;4.90;34.13;101769.59;4967485;28;96791;-82
2022/03/12 01:32:36;;;;;;;5.43;2.67;;;;;;;4.83;34.38;101764.28;4948212;28;97256;-82
2022/03/12 01:35:03;;;;;;;2.87;2.53;;;;;;;4.72;34.10;101763.78;4950506;28;97865;-83
2022/03/12 01:37:28;;;;;;;5.63;2.90;;;;;;;4.77;34.49;101760.53;4949841;28;99551;-83
2022/03/12 01:39:54;;;;;;;3.50;2.63;;;;;;;4.77;34.39;101779.63;4950615;28;97323;-83
2022/03/12 01:42:21;;;;;;;3.43;2.60;;;;;;;4.76;34.41;101762.50;4956924;28;97197;-83
2022/03/12 01:44:47;;;;;;;2.83;2.33;;;;;;;4.73;34.44;101754.41;4948231;28;99745;-83
2022/03/12 01:47:15;;;;;;;2.67;2.47;;;;;;;4.70;34.31;101766.16;4949423;28;97598;-83
2022/03/12 01:49:42;;;;;;;2.80;2.60;;;;;;;4.66;34.40;101755.34;4964520;28;97294;-82
2022/03/12 01:52:07;;;;;;;3.53;2.70;;;;;;;4.62;34.24;101759.34;4952776;28;97507;-84
2022/03/12 01:54:33;;;;;;;2.50;2.30;;;;;;;4.61;34.61;101753.13;4954669;28;99813;-83
2022/03/12 01:56:59;;;;;;;3.10;2.30;;;;;;;4.56;34.59;101759.09;4956425;28;98150;-83
2022/03/12 01:59:25;;;;;;;5.23;2.53;;;;;;;4.50;34.53;101760.75;4958389;28;97039;-82
2022/03/12 02:01:52;;;;;;;2.70;2.50;;;;;;;4.51;34.58;101749.44;4951852;28;96922;-84
2022/03/12 02:04:22;;;;;;;2.63;2.43;;;;;;;4.50;34.64;101763.47;4949720;28;99664;-83
2022/03/12 02:06:50;;;;;;;4.27;3.13;;;;;;;4.48;34.60;101753.00;4951768;28;97701;-83
2022/03/12 02:09:17;;;;;;;2.50;2.30;;;;;;;4.47;34.57;101756.94;4949393;28;96838;-83
2022/03/12 02:11:50;;;;;;;3.40;2.20;;;;;;;4.47;34.57;101756.16;4960176;28;97083;-83
2022/03/12 02:14:18;;;;;;;3.00;2.70;;;;;;;4.43;34.69;101744.59;4952854;28;100937;-83
2022/03/12 02:16:52;;;;;;;3.00;2.80;;;;;;;4.39;34.66;101747.38;4939285;28;102030;-83
2022/03/12 02:19:19;;;;;;;6.80;2.60;;;;;;;4.37;34.66;101741.59;4949177;28;96916;-84
2022/03/12 02:21:52;;;;;;;4.80;2.80;;;;;;;4.40;34.57;101746.19;4946971;28;96980;-83
2022/03/12 02:24:20;;;;;;;2.37;2.17;;;;;;;4.40;34.71;101746.19;4963701;28;97665;-83
2022/03/12 02:26:47;;;;;;;2.50;2.23;;;;;;;4.38;34.61;101745.84;4952698;28;97210;-83
2022/03/12 02:29:18;;;;;;;3.17;2.30;;;;;;;4.38;34.56;101737.69;4947429;28;97468;-83
2022/03/12 02:31:47;;;;;;;3.20;2.47;;;;;;;4.36;34.64;101737.34;4939185;28;97082;-84
2022/03/12 02:34:13;;;;;;;3.40;2.70;;;;;;;4.32;34.45;101736.66;4940976;28;98158;-83
2022/03/12 02:36:40;;;;;;;3.20;2.60;;;;;;;4.25;34.41;101731.34;4949466;28;99251;-84
2022/03/12 02:39:07;;;;;;;3.30;2.20;;;;;;;4.21;34.67;101724.44;4946074;28;97727;-84
2022/03/12 02:41:33;;;;;;;5.50;2.90;;;;;;;4.19;34.49;101738.50;4956627;28;97656;-84
2022/03/12 02:43:59;;;;;;;2.93;2.40;;;;;;;4.10;34.64;101721.97;4957396;28;97543;-84
2022/03/12 02:46:28;;;;;;;4.30;3.00;;;;;;;4.14;34.54;101730.03;4950700;28;97395;-84
2022/03/12 02:48:53;;;;;;;3.10;2.27;;;;;;;4.10;35.04;101738.28;4958254;28;96806;-83
2022/03/12 02:51:23;;;;;;;3.00;2.33;;;;;;;4.07;34.83;101725.50;4949879;28;97364;-83
2022/03/12 02:53:51;;;;;;;3.70;2.70;;;;;;;4.03;34.80;101732.22;4953689;28;103845;-83
2022/03/12 02:56:18;;;;;;;2.57;2.20;;;;;;;4.01;34.92;101715.53;4946526;28;97446;-84
2022/03/12 02:58:44;;;;;;;4.13;2.40;;;;;;;4.02;34.78;101717.81;4957449;28;96939;-83
2022/03/12 03:01:14;;;;;;;3.03;2.83;;;;;;;4.04;34.82;101723.63;4948193;28;97261;-83
2022/03/12 03:03:41;;;;;;;3.67;2.30;;;;;;;4.04;35.04;101722.88;4950855;28;98947;-84
2022/03/12 03:06:08;;;;;;;2.10;1.93;;;;;;;4.03;34.97;101719.38;4957248;28;99308;-83
2022/03/12 03:08:37;;;;;;;3.83;2.03;;;;;;;4.04;34.91;101731.03;4949457;28;97148;-85
2022/03/12 03:11:10;;;;;;;2.33;1.97;;;;;;;4.04;34.83;101737.22;4937014;28;96775;-83
2022/03/12 03:13:38;;;;;;;2.43;2.20;;;;;;;4.02;34.70;101725.25;4947584;28;103903;-83
2022/03/12 03:16:08;;;;;;;2.80;2.40;;;;;;;3.98;34.83;101744.38;4952548;28;99645;-84
2022/03/12 03:18:38;;;;;;;2.30;2.10;;;;;;;3.97;34.93;101715.63;4953132;28;98365;-83
2022/03/12 03:21:07;;;;;;;2.67;2.27;;;;;;;3.95;34.83;101742.50;4945721;28;97016;-83
2022/03/12 03:23:32;;;;;;;5.30;2.30;;;;;;;3.95;34.92;101728.88;4956056;28;97696;-83
2022/03/12 03:26:00;;;;;;;3.70;1.87;;;;;;;3.93;35.04;101720.38;4956795;28;99256;-83
2022/03/12 03:28:25;;;;;;;2.13;1.93;;;;;;;3.89;35.08;101727.06;4943782;28;96997;-83
2022/03/12 03:30:51;;;;;;;2.70;2.50;;;;;;;3.89;35.13;101721.63;4965456;28;96751;-83
2022/03/12 03:33:27;;;;;;;3.37;2.20;;;;;;;3.89;34.84;101718.91;4942481;28;98714;-84
2022/03/12 03:35:52;;;;;;;2.40;2.20;;;;;;;3.87;34.95;101727.47;4950315;28;97935;-83
2022/03/12 03:38:19;;;;;;;3.03;2.07;;;;;;;3.87;34.86;101727.47;4955151;28;97055;-83
2022/03/12 03:40:45;;;;;;;2.67;2.33;;;;;;;3.86;34.91;101730.63;4964125;28;97049;-84
2022/03/12 03:43:13;;;;;;;2.27;1.93;;;;;;;3.86;35.08;101738.78;4959381;28;96970;-83
2022/03/12 03:45:40;;;;;;;3.23;2.10;;;;;;;3.82;35.01;101757.94;4944456;28;96897;-84
2022/03/12 03:48:10;;;;;;;2.33;2.20;;;;;;;3.82;35.39;101751.72;4955785;28;96914;-84
2022/03/12 03:50:36;;;;;;;3.10;2.20;;;;;;;3.72;35.21;101737.09;4951680;28;96909;-84
2022/03/12 03:53:03;;;;;;;2.63;2.30;;;;;;;3.74;35.13;101754.56;4953966;28;96987;-83
2022/03/12 03:55:30;;;;;;;3.30;2.10;;;;;;;3.78;35.18;101757.19;4953905;28;99482;-83
2022/03/12 03:57:56;;;;;;;3.20;2.20;;;;;;;3.78;35.05;101760.69;4946595;28;97289;-84
2022/03/12 04:00:22;;;;;;;3.20;2.60;;;;;;;3.75;35.22;101758.81;4967423;28;96853;-83
2022/03/12 04:02:48;;;;;;;2.70;2.50;;;;;;;3.73;35.30;101761.19;4945189;28;102664;-83
2022/03/12 04:05:14;;;;;;;2.40;1.93;;;;;;;3.68;35.27;101755.47;4951121;28;97218;-84
2022/03/12 04:07:39;;;;;;;3.10;2.17;;;;;;;3.68;35.35;101766.34;4959206;28;96854;-83
2022/03/12 04:10:05;;;;;;;4.50;2.40;;;;;;;3.67;35.22;101768.28;4949554;28;96791;-83
2022/03/12 04:12:30;;;;;;;2.80;2.00;;;;;;;3.65;35.10;101778.06;4953692;28;97980;-84
2022/03/12 04:14:57;;;;;;;2.30;2.03;;;;;;;3.60;35.09;101757.53;4977217;28;96852;-83
2022/03/12 04:17:23;;;;;;;2.77;1.77;;;;;;;3.59;35.59;101771.56;4960080;28;97323;-83
2022/03/12 04:19:49;;;;;;;3.00;2.40;;;;;;;3.56;35.33;101775.13;4939010;28;97294;-84
2022/03/12 04:22:16;;;;;;;2.40;2.00;;;;;;;3.51;35.41;101775.59;4952019;28;98744;-84
2022/03/12 04:24:41;;;;;;;2.67;1.90;;;;;;;3.50;35.63;101774.84;4958526;28;99408;-84
2022/03/12 04:27:07;;;;;;;2.97;2.10;;;;;;;3.49;35.33;101767.09;4948258;28;97082;-84
2022/03/12 04:29:32;;;;;;;2.07;1.97;;;;;;;3.47;35.35;101764.78;4953532;28;96840;-83
2022/03/12 04:31:58;;;;;;;2.20;1.77;;;;;;;3.42;35.41;101767.22;4961041;28;97775;-83
2022/03/12 04:34:23;;;;;;;2.43;2.00;;;;;;;3.38;35.62;101758.34;4956880;28;97104;-85
2022/03/12 04:36:49;;;;;;;5.10;2.03;;;;;;;3.37;35.64;101764.97;4945664;28;96879;-85
2022/03/12 04:39:15;;;;;;;3.23;2.70;;;;;;;3.29;35.64;101763.56;4966527;28;97177;-84
2022/03/12 04:41:40;;;;;;;2.30;2.10;;;;;;;3.27;35.56;101755.81;4951976;28;97993;-84
2022/03/12 04:44:07;;;;;;;3.87;2.47;;;;;;;3.28;35.70;101756.56;4952921;28;96955;-83
2022/03/12 04:46:34;;;;;;;2.23;2.03;;;;;;;3.23;35.77;101754.34;4952774;28;97414;-84
2022/03/12 04:49:00;;;;;;;3.50;2.10;;;;;;;3.20;35.79;101760.59;4951049;28;96672;-84
2022/03/12 04:51:28;;;;;;;3.00;1.97;;;;;;;3.17;35.71;101775.03;4948348;28;97592;-84
2022/03/12 04:54:00;;;;;;;3.33;2.17;;;;;;;3.15;35.88;101755.63;4942547;28;98633;-84
2022/03/12 04:56:27;;;;;;;3.13;2.03;;;;;;;3.18;36.09;101757.53;4950503;28;96750;-83
2022/03/12 04:58:55;;;;;;;3.33;2.50;;;;;;;3.19;35.72;101753.66;4963898;28;97163;-83
2022/03/12 05:01:21;;;;;;;4.73;2.00;;;;;;;3.21;35.76;101759.44;4951445;28;97759;-82
2022/03/12 05:03:47;;;;;;;6.27;2.73;;;;;;;3.20;35.62;101771.47;4953559;28;98091;-84
2022/03/12 05:06:13;;;;;;;2.43;2.07;;;;;;;3.20;35.89;101755.94;4942268;28;97487;-83
2022/03/12 05:08:39;;;;;;;3.13;2.47;;;;;;;3.19;35.68;101757.09;4956358;28;96804;-84
2022/03/12 05:11:05;;;;;;;2.70;1.93;;;;;;;3.18;35.83;101761.03;4965712;28;98362;-84
2022/03/12 05:13:32;;;;;;;2.37;1.87;;;;;;;3.21;35.56;101773.03;4953564;28;97539;-84
2022/03/12 05:16:06;;;;;;;2.77;2.10;;;;;;;3.21;35.74;101781.19;4954055;28;97284;-84
2022/03/12 05:18:40;;;;;;;4.13;1.90;;;;;;;3.20;35.94;101777.69;4962429;28;96895;-83
2022/03/12 05:21:06;;;;;;;2.27;2.07;;;;;;;3.18;35.75;101790.16;4960896;28;97165;-83
2022/03/12 05:23:33;;;;;;;2.83;1.87;;;;;;;3.23;35.90;101786.97;4952080;28;97281;-83
2022/03/12 05:25:58;;;;;;;2.50;2.00;;;;;;;3.18;35.83;101798.31;4953980;28;97362;-83
2022/03/12 05:28:30;;;;;;;2.13;1.53;;;;;;;3.18;35.96;101785.50;4945817;28;96847;-83
2022/03/12 05:30:57;;;;;;;2.00;1.90;;;;;;;3.15;35.78;101788.25;4951905;28;96607;-82
2022/03/12 05:33:23;;;;;;;2.40;2.20;;;;;;;3.15;35.65;101771.94;4942486;28;97615;-82
2022/03/12 05:35:51;;;;;;;1.93;1.70;;;;;;;3.05;35.72;101809.00;4948019;28;97039;-82
2022/03/12 05:38:17;;;;;;;2.90;2.10;;;;;;;3.13;35.75;101785.19;4957996;28;97263;-82
2022/03/12 05:40:43;;;;;;;2.30;2.10;;;;;;;3.13;35.79;101791.41;4960670;28;104792;-82
2022/03/12 05:43:12;;;;;;;3.73;1.77;;;;;;;3.14;35.67;101784.00;4949561;28;97970;-82
2022/03/12 05:45:39;;;;;;;2.50;2.17;;;;;;;3.11;36.02;101798.44;4954500;28;96972;-83
2022/03/12 05:48:09;;;;;;;2.77;1.77;;;;;;;3.09;36.00;101790.69;4941273;28;97189;-82
2022/03/12 05:50:36;;;;;;;2.03;1.80;;;;;;;3.15;36.15;101796.41;4960183;28;96846;-82
2022/03/12 05:53:02;;;;;;;2.67;2.10;;;;;;;3.13;35.99;101788.69;4958513;28;97688;-82
2022/03/12 05:55:27;;;;;;;2.63;2.03;;;;;;;3.20;35.70;101801.38;4952984;28;97311;-82
2022/03/12 05:57:53;;;;;;;1.53;1.43;;;;;;;3.20;36.02;101815.75;4944038;28;97295;-82
2022/03/12 06:00:19;;;;;;;4.07;1.93;;;;;;;3.23;36.05;101811.44;4952630;28;96728;-82
2022/03/12 06:02:52;;;;;;;3.03;2.00;;;;;;;3.27;35.93;101821.09;4959526;28;99809;-82
2022/03/12 06:05:23;;;;;;;2.90;2.10;;;;;;;3.29;35.95;101810.56;4955933;28;97198;-82
2022/03/12 06:07:49;;;;;;;3.00;2.30;;;;;;;3.29;36.18;101847.88;4959107;28;97042;-83
2022/03/12 06:10:17;;;;;;;2.50;1.70;;;;;;;3.32;35.79;101823.31;4948984;28;98179;-82
2022/03/12 06:12:43;;;;;;;2.50;2.17;;;;;;;3.37;36.11;101827.53;4951298;28;102578;-81
2022/03/12 06:15:11;;;;;;;2.80;1.70;;;;;;;3.41;35.68;101830.94;4974772;28;96882;-82
2022/03/12 06:17:38;;;;;;;1.80;1.67;;;;;;;3.46;35.92;101850.28;4951588;28;97208;-81
2022/03/12 06:20:04;;;;;;;2.43;2.20;;;;;;;3.54;35.71;101837.31;4949323;28;96582;-81
2022/03/12 06:22:30;;;;;;;2.13;1.97;;;;;;;3.60;35.83;101839.16;4958909;28;97405;-81
2022/03/12 06:24:55;;;;;;;2.63;2.00;;;;;;;3.61;35.74;101835.28;4954065;28;97058;-81
2022/03/12 06:27:21;;;;;;;2.10;1.80;;;;;;;3.71;35.91;101837.03;4958571;28;97031;-81
2022/03/12 06:29:46;;;;;;;2.80;2.13;;;;;;;3.78;35.77;101836.13;4955855;28;97528;-82
2022/03/12 06:32:13;;;;;;;2.03;1.83;;;;;;;3.85;35.70;101852.34;4944993;28;98158;-82
2022/03/12 06:34:41;;;;;;;2.30;1.70;;;;;;;3.91;35.60;101844.47;4946078;28;96728;-82
2022/03/12 06:37:07;;;;;;;2.23;1.90;;;;;;;3.95;35.49;101826.13;4956040;28;96948;-82
2022/03/12 06:39:33;;;;;;;2.60;1.67;;;;;;;3.98;35.61;101834.19;4965470;28;103165;-81
2022/03/12 06:42:01;;;;;;;1.47;1.37;;;;;;;4.05;35.61;101842.25;4948339;28;98303;-81
2022/03/12 06:44:31;;;;;;;2.07;1.90;;;;;;;4.15;35.54;101835.06;4951932;28;97115;-81
2022/03/12 06:46:57;;;;;;;1.90;1.60;;;;;;;4.23;35.56;101847.34;4951256;28;97025;-80
2022/03/12 06:49:23;;;;;;;2.13;2.03;;;;;;;4.31;35.40;101851.47;4951351;28;99687;-82
2022/03/12 06:51:49;;;;;;;3.53;2.00;;;;;;;4.40;35.58;101847.00;4960363;28;97025;-81
2022/03/12 06:54:14;;;;;;;5.53;1.77;;;;;;;4.46;35.65;101853.47;4939741;28;96713;-81
2022/03/12 06:56:40;;;;;;;2.20;1.97;;;;;;;4.55;35.56;101853.69;4953551;28;97020;-83
2022/03/12 06:59:06;;;;;;;3.93;2.43;;;;;;;4.61;35.21;101881.19;4955636;28;98505;-81
2022/03/12 07:01:32;;;;;;;2.70;1.90;;;;;;;4.74;34.89;101860.28;4953661;28;97335;-83
2022/03/12 07:03:57;;;;;;;2.20;1.90;;;;;;;4.82;35.02;101858.97;4962308;28;97315;-82
2022/03/12 07:06:23;;;;;;;2.80;2.30;;;;;;;4.88;34.97;101859.22;4952893;28;96946;-82
2022/03/12 07:08:49;;;;;;;1.90;1.77;;;;;;;4.94;35.11;101865.69;4963002;28;97082;-83
2022/03/12 07:11:17;;;;;;;2.53;1.63;;;;;;;4.99;35.13;101871.44;4964182;28;96860;-82
2022/03/12 07:13:42;;;;;;;1.97;1.70;;;;;;;5.04;35.01;101881.06;4959837;28;96770;-81
2022/03/12 07:16:08;;;;;;;2.50;1.90;;;;;;;5.05;34.86;101858.03;4968404;28;96602;-82
2022/03/12 07:18:33;;;;;;;2.20;2.07;;;;;;;5.06;34.77;101859.59;4961715;28;98839;-82
2022/03/12 07:20:59;;;;;;;1.80;1.63;;;;;;;5.10;34.86;101871.19;4953732;28;97531;-83
2022/03/12 07:23:25;;;;;;;3.00;1.80;;;;;;;5.12;34.87;101882.44;4976648;28;96945;-84
2022/03/12 07:25:52;;;;;;;3.60;2.30;;;;;;;5.12;35.01;101868.78;4950425;28;97111;-83
2022/03/12 07:28:19;;;;;;;1.73;1.50;;;;;;;5.12;34.62;101906.97;4964315;28;97314;-82
2022/03/12 07:30:44;;;;;;;2.13;1.93;;;;;;;5.14;34.76;101867.19;4950898;28;97759;-82
2022/03/12 07:33:10;;;;;;;2.00;1.77;;;;;;;5.22;34.84;101865.06;4965338;28;96837;-81
2022/03/12 07:35:36;;;;;;;2.73;2.00;;;;;;;5.23;34.78;101872.03;4968625;28;96696;-82
2022/03/12 07:38:03;;;;;;;1.87;1.37;;;;;;;5.25;34.79;101875.88;4943705;28;98549;-84
2022/03/12 07:40:28;;;;;;;1.83;1.57;;;;;;;5.27;35.15;101878.97;4944088;28;98399;-82
2022/03/12 07:42:55;;;;;;;2.27;1.47;;;;;;;5.29;34.72;101879.31;4951317;28;96930;-82
2022/03/12 07:45:21;;;;;;;2.30;2.00;;;;;;;5.34;34.95;101888.94;4951554;28;96835;-84
2022/03/12 07:47:52;;;;;;;2.97;1.67;;;;;;;5.33;34.77;101876.47;4969306;28;98716;-84
2022/03/12 07:50:18;;;;;;;2.23;1.63;;;;;;;5.37;34.85;101879.91;4954313;28;98819;-85
2022/03/12 07:52:44;;;;;;;1.70;1.60;;;;;;;5.37;34.75;101879.91;4953840;28;97108;-84
2022/03/12 07:55:12;;;;;;;2.67;1.70;;;;;;;5.41;34.95;101883.31;4942500;28;96995;-84
2022/03/12 07:57:41;;;;;;;2.30;1.80;;;;;;;5.44;35.05;101874.25;4949249;28;98130;-84
2022/03/12 08:00:10;;;;;;;1.73;1.60;;;;;;;5.48;35.11;101921.38;4958436;28;98558;-85
2022/03/12 08:02:36;;;;;;;2.80;2.10;;;;;;;5.55;34.83;101880.22;4944526;28;97021;-84
2022/03/12 08:05:02;;;;;;;2.70;2.00;;;;;;;5.62;35.01;101877.34;4944157;28;96959;-84
2022/03/12 08:07:29;;;;;;;2.00;1.90;;;;;;;5.69;34.87;101873.66;4948321;28;99976;-84
2022/03/12 08:09:59;;;;;;;2.20;2.00;;;;;;;5.73;34.36;101883.28;4958528;28;98527;-84
2022/03/12 08:12:28;;;;;;;4.30;1.90;;;;;;;5.67;34.66;101871.38;4937505;28;96712;-85
2022/03/12 08:14:54;;;;;;;2.07;1.70;;;;;;;5.77;34.81;101877.72;4955460;28;97326;-85
2022/03/12 08:17:20;;;;;;;2.70;2.07;;;;;;;5.82;34.09;101879.94;4952552;28;99135;-85
2022/03/12 08:19:46;;;;;;;1.83;1.50;;;;;;;5.89;34.45;101880.59;4947374;28;99870;-83
2022/03/12 08:22:13;;;;;;;2.60;2.00;;;;;;;5.98;34.45;101879.97;4944174;28;96676;-84
2022/03/12 08:24:38;;;;;;;2.20;1.70;;;;;;;6.05;34.49;101880.53;4950958;28;97022;-83
2022/03/12 08:27:05;;;;;;;1.90;1.77;;;;;;;6.14;34.62;101881.88;4954596;28;98282;-84
2022/03/12 08:29:31;;;;;;;2.13;1.93;;;;;;;6.22;34.34;101875.81;4951866;28;97311;-84
2022/03/12 08:31:57;;;;;;;2.10;1.90;;;;;;;6.30;34.22;101871.66;4941847;28;96997;-85
2022/03/12 08:34:22;;;;;;;2.20;1.87;;;;;;;6.44;34.02;101873.22;4944125;28;97098;-85
2022/03/12 08:36:48;;;;;;;3.07;1.70;;;;;;;6.56;34.48;101886.16;4950391;28;96988;-85
2022/03/12 08:39:14;;;;;;;4.73;2.00;;;;;;;6.65;34.41;101898.00;4948696;28;99190;-85
2022/03/12 08:41:40;;;;;;;3.60;1.80;;;;;;;6.87;34.29;101883.69;4954678;28;96770;-86
2022/03/12 08:44:06;;;;;;;2.70;2.33;;;;;;;6.99;34.04;101878.22;4955221;28;96954;-85
2022/03/12 08:46:35;;;;;;;2.70;2.10;;;;;;;7.18;34.05;101885.47;4951727;28;96720;-85
2022/03/12 08:49:00;;;;;;;3.13;2.20;;;;;;;7.31;33.50;101891.69;4958965;28;99563;-86
2022/03/12 08:51:25;;;;;;;1.77;1.67;;;;;;;7.43;33.23;101882.69;4960205;28;96832;-85
2022/03/12 08:53:51;;;;;;;2.37;2.00;;;;;;;7.61;33.66;101870.41;4952606;28;96757;-85
2022/03/12 08:56:16;;;;;;;2.57;2.37;;;;;;;7.79;33.27;101884.28;4958545;28;98841;-86
2022/03/12 08:58:42;;;;;;;2.43;2.00;;;;;;;7.91;33.42;101867.78;4947695;28;96980;-84
2022/03/12 09:01:08;;;;;;;2.27;1.87;;;;;;;8.21;33.06;101874.59;4958804;28;97344;-86
2022/03/12 09:03:36;;;;;;;1.90;1.70;;;;;;;8.42;33.08;101876.59;4955433;28;99481;-84
2022/03/12 09:06:02;;;;;;;3.97;2.00;;;;;;;8.66;32.89;101868.66;4953075;28;97786;-84
2022/03/12 09:08:28;;;;;;;1.73;1.47;;;;;;;8.90;32.82;101875.94;4957736;28;97448;-82
2022/03/12 09:10:55;;;;;;;2.17;2.00;;;;;;;9.14;32.74;101872.66;4949979;28;97219;-84
2022/03/12 09:13:21;;;;;;;1.80;1.70;;;;;;;9.34;32.18;101914.25;4941265;28;97234;-83
2022/03/12 09:15:46;;;;;;;2.07;1.83;;;;;;;9.51;32.13;101880.56;4957421;28;98511;-83
2022/03/12 09:18:13;;;;;;;2.43;1.73;;;;;;;9.68;32.02;101870.06;4961815;28;97624;-83
2022/03/12 09:20:46;;;;;;;2.33;2.13;;;;;;;9.90;31.76;101872.66;4963135;28;96737;-83
2022/03/12 09:23:16;;;;;;;1.80;1.70;;;;;;;9.97;31.66;101878.63;4950734;28;96797;-83
2022/03/12 09:25:42;;;;;;;3.43;1.77;;;;;;;10.12;31.64;101863.09;4949225;28;97863;-81
2022/03/12 09:28:08;;;;;;;3.40;2.67;;;;;;;10.28;31.54;101882.03;4967000;28;96977;-84
2022/03/12 09:30:34;;;;;;;1.97;1.80;;;;;;;10.46;31.43;101872.97;4954717;28;96884;-82
2022/03/12 09:33:00;;;;;;;1.97;1.80;;;;;;;10.56;31.55;101863.47;4952003;28;96757;-84
2022/03/12 09:35:26;;;;;;;1.87;1.77;;;;;;;10.78;31.51;101877.03;4954638;28;96871;-83
2022/03/12 09:37:51;;;;;;;2.03;1.83;;;;;;;10.91;31.40;101866.56;4942275;28;97237;-82
2022/03/12 09:40:16;;;;;;;2.30;2.13;;;;;;;10.93;31.26;101851.13;4913005;28;97330;-85
2022/03/12 09:42:43;;;;;;;2.00;1.80;;;;;;;11.10;31.12;101870.78;4963112;28;97419;-84
2022/03/12 09:45:09;;;;;;;1.93;1.83;;;;;;;11.20;31.23;101850.25;4953963;28;96893;-83
2022/03/12 09:47:35;;;;;;;2.87;2.53;;;;;;;11.28;31.19;101851.41;4952079;28;99315;-83
2022/03/12 09:50:01;;;;;;;2.03;1.73;;;;;;;11.32;31.10;101852.00;4960346;28;96820;-82
2022/03/12 09:52:27;;;;;;;1.77;1.67;;;;;;;11.40;30.97;101855.91;4951379;28;96888;-81
2022/03/12 09:54:53;;;;;;;1.90;1.80;;;;;;;11.48;30.90;101851.59;4947623;28;96904;-84
2022/03/12 09:57:19;;;;;;;3.10;2.60;;;;;;;11.54;31.01;101854.47;4939556;28;96991;-83
2022/03/12 09:59:44;;;;;;;2.20;1.90;;;;;;;11.66;30.86;101859.75;4951102;28;96836;-83
2022/03/12 10:02:10;;;;;;;2.40;2.20;;;;;;;11.73;30.81;101840.09;4937454;28;96953;-82
2022/03/12 10:04:35;;;;;;;2.60;2.20;;;;;;;11.78;30.34;101844.97;4922662;28;98418;-82
2022/03/12 10:07:01;;;;;;;2.27;2.07;;;;;;;11.77;30.07;101848.97;4949261;28;97964;-82
2022/03/12 10:09:26;;;;;;;1.93;1.83;;;;;;;11.85;30.35;101865.91;4937778;28;96900;-83
2022/03/12 10:11:52;;;;;;;2.70;2.00;;;;;;;11.90;30.21;101851.47;4937820;28;97026;-81
2022/03/12 10:14:18;;;;;;;2.10;2.00;;;;;;;11.87;29.99;101855.94;4955837;28;98823;-82
2022/03/12 10:16:44;;;;;;;2.03;1.90;;;;;;;11.92;30.11;101868.31;4928596;28;99120;-82
2022/03/12 10:19:10;;;;;;;3.93;3.33;;;;;;;12.02;30.32;101853.19;4956069;28;96966;-83
2022/03/12 10:21:42;;;;;;;2.93;2.50;;;;;;;12.07;30.43;101854.53;4924911;28;97189;-82
2022/03/12 10:24:08;;;;;;;4.10;1.97;;;;;;;12.14;30.27;101854.94;4944840;28;104333;-83
2022/03/12 10:26:33;;;;;;;1.80;1.70;;;;;;;12.18;30.10;101841.72;4938926;28;97831;-82
2022/03/12 10:28:59;;;;;;;2.57;2.37;;;;;;;12.19;30.21;101845.25;4933357;28;97036;-84
2022/03/12 10:31:25;;;;;;;4.23;2.43;;;;;;;12.23;30.10;101829.28;4945534;28;97070;-83
2022/03/12 10:33:51;;;;;;;2.47;2.37;;;;;;;12.25;30.20;101835.84;4946440;28;98425;-82
2022/03/12 10:36:17;;;;;;;2.50;2.13;;;;;;;12.32;30.43;101840.97;4949596;28;97064;-83
2022/03/12 10:38:48;;;;;;;3.60;2.20;;;;;;;12.36;29.95;101829.75;4922997;28;96854;-85
2022/03/12 10:41:15;;;;;;;2.10;1.90;;;;;;;12.40;29.87;101835.84;4936455;28;99082;-85
2022/03/12 10:43:46;;;;;;;3.37;2.50;;;;;;;12.45;29.08;101829.66;4942596;28;97582;-83
2022/03/12 10:46:22;;;;;;;3.00;1.90;;;;;;;12.49;29.16;101835.75;4932188;28;99206;-84
2022/03/12 10:48:58;;;;;;;2.37;2.17;;;;;;;12.57;30.01;101834.13;4934597;28;97920;-83
2022/03/12 10:51:28;;;;;;;3.20;1.80;;;;;;;12.63;29.92;101829.44;4952192;28;96822;-84
2022/03/12 10:54:07;;;;;;;2.43;2.20;;;;;;;12.71;29.12;101828.56;4930785;28;98441;-82
2022/03/12 10:56:47;;;;;;;2.50;2.27;;;;;;;12.75;28.90;101820.09;4950244;28;97130;-82
2022/03/12 10:59:26;;;;;;;2.83;2.63;;;;;;;12.86;28.97;101842.38;4940044;28;97365;-82
2022/03/12 11:01:56;;;;;;;2.23;2.03;;;;;;;12.98;29.80;101832.22;4909971;28;96906;-83
2022/03/12 11:04:26;;;;;;;2.60;2.40;;;;;;;13.10;29.06;101834.72;4932288;28;98278;-84
2022/03/12 11:06:55;;;;;;;2.60;2.40;;;;;;;13.19;29.40;101837.34;4939682;28;98037;-82
2022/03/12 11:09:33;;;;;;;3.03;2.63;;;;;;;13.29;28.37;101819.41;4937298;28;97056;-83
2022/03/12 11:12:00;;;;;;;4.20;2.13;;;;;;;13.43;29.33;101834.41;4949573;28;96963;-81
2022/03/12 11:14:28;;;;;;;3.83;2.30;;;;;;;13.56;29.48;101823.78;4937564;28;97986;-82
2022/03/12 11:16:54;;;;;;;2.67;2.47;;;;;;;13.68;29.32;101817.13;4935696;28;98365;-82
2022/03/12 11:19:37;;;;;;;2.80;2.57;;;;;;;13.82;28.94;101815.53;4936081;28;97411;-84
2022/03/12 11:22:09;;;;;;;2.50;2.10;;;;;;;14.03;28.43;101817.75;4919078;28;98083;-84
2022/03/12 11:24:55;;;;;;;2.87;2.67;;;;;;;14.29;27.41;101826.09;4951604;28;98384;-82
2022/03/12 11:27:34;;;;;;;3.17;1.97;;;;;;;14.51;27.02;101823.50;4931257;28;97781;-82
2022/03/12 11:30:10;;;;;;;2.50;2.30;;;;;;;14.75;26.54;101828.72;4949590;28;97371;-81
2022/03/12 11:32:42;;;;;;;2.50;2.30;;;;;;;14.92;27.67;101808.22;4958680;28;96948;-85